sensor_id;sensor_type;location;lat;lon;timestamp;P1;durP1;ratioP1;P2;durP2;ratioP2
20794;SDS011;28087;-33.874;151.240;2022-09-25T00:01:14;6.88;;;2.40;;
20794;SDS011;28087;-33.874;151.240;2022-09-25T00:03:48;4.93;;;2.20;;
20794;SDS011;28087;-33.874;151.240;2022-09-25T00:06:25;4.97;;;2.40;;
20794;SDS011;28087;-33.874;151.240;2022-09-25T00:09:00;3.80;;;2.20;;
20794;SDS011;28087;-33.874;151.240;2022-09-25T00:11:38;4.65;;;2.30;;
20794;SDS011;28087;-33.874;151.240;2022-09-25T00:14:12;4.30;;;2.38;;
20794;SDS011;28087;-33.874;151.240;2022-09-25T00:16:47;3.75;;;1.95;;
20794;SDS011;28087;-33.874;151.240;2022-09-25T00:19:21;3.65;;;2.15;;
20794;SDS011;28087;-33.874;151.240;2022-09-25T00:22:14;4.78;;;2.10;;
20794;SDS011;28087;-33.874;151.240;2022-09-25T00:24:51;5.32;;;2.10;;
20794;SDS011;28087;-33.874;151.240;2022-09-25T00:27:25;4.25;;;2.05;;
20794;SDS011;28087;-33.874;151.240;2022-09-25T00:29:59;3.88;;;1.95;;
20794;SDS011;28087;-33.874;151.240;2022-09-25T00:32:37;3.83;;;2.05;;
20794;SDS011;28087;-33.874;151.240;2022-09-25T00:35:11;3.40;;;1.80;;
20794;SDS011;28087;-33.874;151.240;2022-09-25T00:37:49;4.07;;;2.00;;
20794;SDS011;28087;-33.874;151.240;2022-09-25T00:40:25;3.70;;;1.70;;
20794;SDS011;28087;-33.874;151.240;2022-09-25T00:43:00;5.18;;;1.88;;
20794;SDS011;28087;-33.874;151.240;2022-09-25T00:45:35;3.78;;;1.70;;
20794;SDS011;28087;-33.874;151.240;2022-09-25T00:48:12;4.95;;;1.70;;
20794;SDS011;28087;-33.874;151.240;2022-09-25T00:50:48;2.92;;;1.50;;
20794;SDS011;28087;-33.874;151.240;2022-09-25T00:53:26;2.78;;;1.50;;
20794;SDS011;28087;-33.874;151.240;2022-09-25T00:56:02;5.95;;;1.65;;
20794;SDS011;28087;-33.874;151.240;2022-09-25T00:58:37;4.35;;;1.73;;
20794;SDS011;28087;-33.874;151.240;2022-09-25T01:01:13;5.65;;;1.90;;
20794;SDS011;28087;-33.874;151.240;2022-09-25T01:03:47;3.15;;;1.50;;
20794;SDS011;28087;-33.874;151.240;2022-09-25T01:06:23;4.47;;;1.55;;
20794;SDS011;28087;-33.874;151.240;2022-09-25T01:09:00;4.38;;;1.70;;
20794;SDS011;28087;-33.874;151.240;2022-09-25T01:11:34;3.08;;;1.58;;
20794;SDS011;28087;-33.874;151.240;2022-09-25T01:14:11;4.03;;;1.55;;
20794;SDS011;28087;-33.874;151.240;2022-09-25T01:16:49;2.70;;;1.60;;
20794;SDS011;28087;-33.874;151.240;2022-09-25T01:19:29;3.45;;;1.50;;
20794;SDS011;28087;-33.874;151.240;2022-09-25T01:22:09;4.43;;;1.60;;
20794;SDS011;28087;-33.874;151.240;2022-09-25T01:24:52;5.13;;;1.60;;
20794;SDS011;28087;-33.874;151.240;2022-09-25T01:30:28;3.25;;;1.58;;
20794;SDS011;28087;-33.874;151.240;2022-09-25T01:33:06;4.03;;;1.55;;
20794;SDS011;28087;-33.874;151.240;2022-09-25T01:35:46;4.82;;;1.63;;
20794;SDS011;28087;-33.874;151.240;2022-09-25T01:38:23;3.80;;;1.50;;
20794;SDS011;28087;-33.874;151.240;2022-09-25T01:41:01;2.97;;;1.40;;
20794;SDS011;28087;-33.874;151.240;2022-09-25T01:43:38;4.40;;;1.50;;
20794;SDS011;28087;-33.874;151.240;2022-09-25T01:46:19;3.92;;;1.60;;
20794;SDS011;28087;-33.874;151.240;2022-09-25T01:48:57;3.85;;;1.45;;
20794;SDS011;28087;-33.874;151.240;2022-09-25T01:51:35;4.45;;;1.63;;
20794;SDS011;28087;-33.874;151.240;2022-09-25T01:54:13;3.55;;;1.55;;
20794;SDS011;28087;-33.874;151.240;2022-09-25T01:56:53;5.10;;;1.80;;
20794;SDS011;28087;-33.874;151.240;2022-09-25T01:59:31;3.65;;;1.60;;
20794;SDS011;28087;-33.874;151.240;2022-09-25T02:02:16;3.35;;;1.50;;
20794;SDS011;28087;-33.874;151.240;2022-09-25T02:04:57;5.45;;;1.83;;
20794;SDS011;28087;-33.874;151.240;2022-09-25T02:07:35;4.90;;;1.48;;
20794;SDS011;28087;-33.874;151.240;2022-09-25T02:10:16;4.32;;;1.50;;
20794;SDS011;28087;-33.874;151.240;2022-09-25T02:12:57;2.40;;;1.20;;
20794;SDS011;28087;-33.874;151.240;2022-09-25T02:15:35;2.85;;;1.35;;
20794;SDS011;28087;-33.874;151.240;2022-09-25T02:18:13;3.83;;;1.50;;
20794;SDS011;28087;-33.874;151.240;2022-09-25T02:21:10;2.40;;;1.27;;
20794;SDS011;28087;-33.874;151.240;2022-09-25T02:23:50;3.33;;;1.42;;
20794;SDS011;28087;-33.874;151.240;2022-09-25T02:26:31;3.70;;;1.48;;
20794;SDS011;28087;-33.874;151.240;2022-09-25T02:29:08;2.10;;;1.30;;
20794;SDS011;28087;-33.874;151.240;2022-09-25T02:31:46;2.35;;;1.30;;
20794;SDS011;28087;-33.874;151.240;2022-09-25T02:34:26;5.13;;;1.50;;
20794;SDS011;28087;-33.874;151.240;2022-09-25T02:37:02;3.55;;;1.40;;
20794;SDS011;28087;-33.874;151.240;2022-09-25T02:39:43;3.10;;;1.30;;
20794;SDS011;28087;-33.874;151.240;2022-09-25T02:42:23;4.03;;;1.50;;
20794;SDS011;28087;-33.874;151.240;2022-09-25T02:45:09;3.50;;;1.40;;
20794;SDS011;28087;-33.874;151.240;2022-09-25T02:47:51;2.33;;;1.30;;
20794;SDS011;28087;-33.874;151.240;2022-09-25T02:50:33;2.80;;;1.50;;
20794;SDS011;28087;-33.874;151.240;2022-09-25T02:53:12;3.78;;;1.30;;
20794;SDS011;28087;-33.874;151.240;2022-09-25T02:55:49;3.58;;;1.20;;
20794;SDS011;28087;-33.874;151.240;2022-09-25T02:58:26;1.98;;;1.10;;
20794;SDS011;28087;-33.874;151.240;2022-09-25T03:01:01;2.35;;;1.35;;
20794;SDS011;28087;-33.874;151.240;2022-09-25T03:03:37;2.17;;;1.10;;
20794;SDS011;28087;-33.874;151.240;2022-09-25T03:06:15;2.03;;;1.10;;
20794;SDS011;28087;-33.874;151.240;2022-09-25T03:08:49;3.45;;;1.23;;
20794;SDS011;28087;-33.874;151.240;2022-09-25T03:11:26;2.00;;;1.00;;
20794;SDS011;28087;-33.874;151.240;2022-09-25T03:14:01;5.68;;;1.38;;
20794;SDS011;28087;-33.874;151.240;2022-09-25T03:16:36;3.03;;;1.40;;
20794;SDS011;28087;-33.874;151.240;2022-09-25T03:19:12;2.53;;;1.40;;
20794;SDS011;28087;-33.874;151.240;2022-09-25T03:21:50;3.75;;;1.45;;
20794;SDS011;28087;-33.874;151.240;2022-09-25T03:24:25;4.70;;;1.77;;
20794;SDS011;28087;-33.874;151.240;2022-09-25T03:27:00;3.03;;;1.50;;
20794;SDS011;28087;-33.874;151.240;2022-09-25T03:29:34;5.03;;;1.35;;
20794;SDS011;28087;-33.874;151.240;2022-09-25T03:32:09;3.22;;;1.20;;
20794;SDS011;28087;-33.874;151.240;2022-09-25T03:34:43;3.45;;;1.38;;
20794;SDS011;28087;-33.874;151.240;2022-09-25T03:37:20;3.95;;;1.30;;
20794;SDS011;28087;-33.874;151.240;2022-09-25T03:39:56;2.80;;;1.30;;
20794;SDS011;28087;-33.874;151.240;2022-09-25T03:42:31;3.78;;;1.77;;
20794;SDS011;28087;-33.874;151.240;2022-09-25T03:45:09;3.67;;;1.38;;
20794;SDS011;28087;-33.874;151.240;2022-09-25T03:47:45;5.32;;;1.30;;
20794;SDS011;28087;-33.874;151.240;2022-09-25T03:50:19;5.07;;;1.70;;
20794;SDS011;28087;-33.874;151.240;2022-09-25T03:52:55;3.08;;;1.42;;
20794;SDS011;28087;-33.874;151.240;2022-09-25T03:55:29;2.88;;;1.30;;
20794;SDS011;28087;-33.874;151.240;2022-09-25T03:58:04;3.38;;;1.30;;
20794;SDS011;28087;-33.874;151.240;2022-09-25T04:00:38;4.30;;;1.30;;
20794;SDS011;28087;-33.874;151.240;2022-09-25T04:03:13;3.90;;;1.30;;
20794;SDS011;28087;-33.874;151.240;2022-09-25T04:05:47;5.00;;;1.40;;
20794;SDS011;28087;-33.874;151.240;2022-09-25T04:08:24;3.90;;;1.58;;
20794;SDS011;28087;-33.874;151.240;2022-09-25T04:10:59;3.30;;;1.30;;
20794;SDS011;28087;-33.874;151.240;2022-09-25T04:13:35;4.28;;;1.48;;
20794;SDS011;28087;-33.874;151.240;2022-09-25T04:16:11;4.28;;;1.55;;
20794;SDS011;28087;-33.874;151.240;2022-09-25T04:18:46;3.40;;;1.30;;
20794;SDS011;28087;-33.874;151.240;2022-09-25T04:21:22;3.22;;;1.25;;
20794;SDS011;28087;-33.874;151.240;2022-09-25T04:23:59;3.05;;;1.30;;
20794;SDS011;28087;-33.874;151.240;2022-09-25T04:26:49;3.75;;;1.30;;
20794;SDS011;28087;-33.874;151.240;2022-09-25T04:29:23;5.85;;;1.42;;
20794;SDS011;28087;-33.874;151.240;2022-09-25T04:31:58;3.65;;;1.52;;
20794;SDS011;28087;-33.874;151.240;2022-09-25T04:34:48;4.97;;;1.50;;
20794;SDS011;28087;-33.874;151.240;2022-09-25T04:37:22;3.90;;;1.30;;
20794;SDS011;28087;-33.874;151.240;2022-09-25T04:39:59;6.13;;;1.40;;
20794;SDS011;28087;-33.874;151.240;2022-09-25T04:42:36;4.10;;;1.70;;
20794;SDS011;28087;-33.874;151.240;2022-09-25T04:45:14;3.47;;;1.60;;
20794;SDS011;28087;-33.874;151.240;2022-09-25T04:47:50;5.20;;;1.58;;
20794;SDS011;28087;-33.874;151.240;2022-09-25T04:50:26;5.75;;;1.50;;
20794;SDS011;28087;-33.874;151.240;2022-09-25T04:53:05;4.57;;;1.33;;
20794;SDS011;28087;-33.874;151.240;2022-09-25T04:55:45;5.85;;;1.50;;
20794;SDS011;28087;-33.874;151.240;2022-09-25T04:58:20;4.32;;;1.70;;
20794;SDS011;28087;-33.874;151.240;2022-09-25T05:01:00;4.10;;;1.60;;
20794;SDS011;28087;-33.874;151.240;2022-09-25T05:03:36;5.60;;;1.30;;
20794;SDS011;28087;-33.874;151.240;2022-09-25T05:06:12;2.85;;;1.15;;
20794;SDS011;28087;-33.874;151.240;2022-09-25T05:08:51;4.35;;;1.30;;
20794;SDS011;28087;-33.874;151.240;2022-09-25T05:11:28;3.30;;;1.20;;
20794;SDS011;28087;-33.874;151.240;2022-09-25T05:14:03;4.05;;;1.30;;
20794;SDS011;28087;-33.874;151.240;2022-09-25T05:16:40;2.95;;;1.40;;
20794;SDS011;28087;-33.874;151.240;2022-09-25T05:19:15;3.80;;;1.20;;
20794;SDS011;28087;-33.874;151.240;2022-09-25T05:21:51;3.17;;;1.30;;
20794;SDS011;28087;-33.874;151.240;2022-09-25T05:24:26;4.18;;;1.30;;
20794;SDS011;28087;-33.874;151.240;2022-09-25T05:27:04;3.10;;;1.20;;
20794;SDS011;28087;-33.874;151.240;2022-09-25T05:29:39;3.47;;;1.20;;
20794;SDS011;28087;-33.874;151.240;2022-09-25T05:32:14;4.10;;;1.08;;
20794;SDS011;28087;-33.874;151.240;2022-09-25T05:34:49;4.82;;;1.38;;
20794;SDS011;28087;-33.874;151.240;2022-09-25T05:37:24;3.10;;;1.15;;
20794;SDS011;28087;-33.874;151.240;2022-09-25T05:40:00;4.38;;;1.25;;
20794;SDS011;28087;-33.874;151.240;2022-09-25T05:42:39;3.00;;;1.20;;
20794;SDS011;28087;-33.874;151.240;2022-09-25T05:45:15;4.00;;;1.30;;
20794;SDS011;28087;-33.874;151.240;2022-09-25T05:48:01;3.92;;;1.23;;
20794;SDS011;28087;-33.874;151.240;2022-09-25T05:50:36;2.92;;;1.38;;
20794;SDS011;28087;-33.874;151.240;2022-09-25T05:53:12;2.65;;;1.10;;
20794;SDS011;28087;-33.874;151.240;2022-09-25T05:55:50;4.53;;;1.02;;
20794;SDS011;28087;-33.874;151.240;2022-09-25T05:58:28;2.65;;;1.10;;
20794;SDS011;28087;-33.874;151.240;2022-09-25T06:01:05;3.22;;;1.40;;
20794;SDS011;28087;-33.874;151.240;2022-09-25T06:03:40;2.38;;;1.20;;
20794;SDS011;28087;-33.874;151.240;2022-09-25T06:06:15;3.22;;;1.10;;
20794;SDS011;28087;-33.874;151.240;2022-09-25T06:08:55;3.88;;;1.42;;
20794;SDS011;28087;-33.874;151.240;2022-09-25T06:11:31;6.32;;;1.25;;
20794;SDS011;28087;-33.874;151.240;2022-09-25T06:14:08;4.38;;;1.20;;
20794;SDS011;28087;-33.874;151.240;2022-09-25T06:16:46;2.92;;;1.10;;
20794;SDS011;28087;-33.874;151.240;2022-09-25T06:19:22;3.42;;;1.30;;
20794;SDS011;28087;-33.874;151.240;2022-09-25T06:21:58;3.78;;;1.30;;
20794;SDS011;28087;-33.874;151.240;2022-09-25T06:24:34;2.97;;;1.20;;
20794;SDS011;28087;-33.874;151.240;2022-09-25T06:27:09;3.08;;;1.20;;
20794;SDS011;28087;-33.874;151.240;2022-09-25T06:29:46;3.08;;;1.20;;
20794;SDS011;28087;-33.874;151.240;2022-09-25T06:32:21;3.45;;;1.30;;
20794;SDS011;28087;-33.874;151.240;2022-09-25T06:34:56;3.88;;;1.13;;
20794;SDS011;28087;-33.874;151.240;2022-09-25T06:37:31;2.60;;;1.00;;
20794;SDS011;28087;-33.874;151.240;2022-09-25T06:40:07;3.20;;;1.08;;
20794;SDS011;28087;-33.874;151.240;2022-09-25T06:42:44;4.47;;;1.48;;
20794;SDS011;28087;-33.874;151.240;2022-09-25T06:45:21;4.22;;;1.23;;
20794;SDS011;28087;-33.874;151.240;2022-09-25T06:47:59;2.50;;;1.10;;
20794;SDS011;28087;-33.874;151.240;2022-09-25T06:50:39;3.13;;;1.10;;
20794;SDS011;28087;-33.874;151.240;2022-09-25T06:53:16;3.55;;;1.20;;
20794;SDS011;28087;-33.874;151.240;2022-09-25T06:55:54;3.22;;;1.10;;
20794;SDS011;28087;-33.874;151.240;2022-09-25T06:58:34;2.60;;;1.08;;
20794;SDS011;28087;-33.874;151.240;2022-09-25T07:01:11;4.85;;;1.48;;
20794;SDS011;28087;-33.874;151.240;2022-09-25T07:03:47;4.25;;;1.20;;
20794;SDS011;28087;-33.874;151.240;2022-09-25T07:06:21;4.05;;;1.10;;
20794;SDS011;28087;-33.874;151.240;2022-09-25T07:08:59;4.18;;;1.20;;
20794;SDS011;28087;-33.874;151.240;2022-09-25T07:11:36;5.30;;;1.20;;
20794;SDS011;28087;-33.874;151.240;2022-09-25T07:14:14;3.85;;;1.10;;
20794;SDS011;28087;-33.874;151.240;2022-09-25T07:16:53;4.07;;;1.20;;
20794;SDS011;28087;-33.874;151.240;2022-09-25T07:19:28;3.65;;;1.05;;
20794;SDS011;28087;-33.874;151.240;2022-09-25T07:22:03;2.92;;;1.20;;
20794;SDS011;28087;-33.874;151.240;2022-09-25T07:24:39;3.22;;;1.27;;
20794;SDS011;28087;-33.874;151.240;2022-09-25T07:27:14;5.03;;;1.20;;
20794;SDS011;28087;-33.874;151.240;2022-09-25T07:29:50;4.38;;;1.23;;
20794;SDS011;28087;-33.874;151.240;2022-09-25T07:32:27;3.22;;;1.23;;
20794;SDS011;28087;-33.874;151.240;2022-09-25T07:35:03;5.75;;;1.30;;
20794;SDS011;28087;-33.874;151.240;2022-09-25T07:37:42;6.55;;;1.40;;
20794;SDS011;28087;-33.874;151.240;2022-09-25T07:40:18;4.22;;;1.40;;
20794;SDS011;28087;-33.874;151.240;2022-09-25T07:42:57;3.45;;;1.20;;
20794;SDS011;28087;-33.874;151.240;2022-09-25T07:45:33;3.65;;;1.25;;
20794;SDS011;28087;-33.874;151.240;2022-09-25T07:48:10;4.30;;;1.30;;
20794;SDS011;28087;-33.874;151.240;2022-09-25T07:50:44;3.40;;;1.25;;
20794;SDS011;28087;-33.874;151.240;2022-09-25T07:53:20;2.60;;;1.00;;
20794;SDS011;28087;-33.874;151.240;2022-09-25T07:55:56;3.38;;;1.30;;
20794;SDS011;28087;-33.874;151.240;2022-09-25T07:58:35;4.70;;;1.30;;
20794;SDS011;28087;-33.874;151.240;2022-09-25T08:01:09;4.15;;;1.30;;
20794;SDS011;28087;-33.874;151.240;2022-09-25T08:03:46;4.65;;;1.40;;
20794;SDS011;28087;-33.874;151.240;2022-09-25T08:06:21;4.90;;;1.20;;
20794;SDS011;28087;-33.874;151.240;2022-09-25T08:08:57;3.35;;;1.27;;
20794;SDS011;28087;-33.874;151.240;2022-09-25T08:11:38;4.78;;;1.33;;
20794;SDS011;28087;-33.874;151.240;2022-09-25T08:14:17;3.88;;;1.35;;
20794;SDS011;28087;-33.874;151.240;2022-09-25T08:16:56;3.17;;;1.20;;
20794;SDS011;28087;-33.874;151.240;2022-09-25T08:19:33;3.47;;;1.33;;
20794;SDS011;28087;-33.874;151.240;2022-09-25T08:22:09;2.90;;;1.23;;
20794;SDS011;28087;-33.874;151.240;2022-09-25T08:24:44;3.63;;;1.10;;
20794;SDS011;28087;-33.874;151.240;2022-09-25T08:27:19;3.60;;;1.20;;
20794;SDS011;28087;-33.874;151.240;2022-09-25T08:29:56;4.25;;;1.58;;
20794;SDS011;28087;-33.874;151.240;2022-09-25T08:32:32;5.38;;;1.40;;
20794;SDS011;28087;-33.874;151.240;2022-09-25T08:35:11;4.22;;;1.60;;
20794;SDS011;28087;-33.874;151.240;2022-09-25T08:37:45;5.18;;;2.35;;
20794;SDS011;28087;-33.874;151.240;2022-09-25T08:40:24;5.05;;;2.10;;
20794;SDS011;28087;-33.874;151.240;2022-09-25T08:43:03;4.05;;;1.50;;
20794;SDS011;28087;-33.874;151.240;2022-09-25T08:45:39;5.22;;;1.60;;
20794;SDS011;28087;-33.874;151.240;2022-09-25T08:48:34;4.95;;;1.90;;
20794;SDS011;28087;-33.874;151.240;2022-09-25T08:51:28;6.13;;;1.98;;
20794;SDS011;28087;-33.874;151.240;2022-09-25T08:54:08;4.07;;;1.58;;
20794;SDS011;28087;-33.874;151.240;2022-09-25T08:56:43;5.32;;;1.80;;
20794;SDS011;28087;-33.874;151.240;2022-09-25T08:59:21;5.25;;;1.80;;
20794;SDS011;28087;-33.874;151.240;2022-09-25T09:01:58;5.05;;;1.90;;
20794;SDS011;28087;-33.874;151.240;2022-09-25T09:04:36;3.67;;;1.85;;
20794;SDS011;28087;-33.874;151.240;2022-09-25T09:07:15;4.15;;;1.80;;
20794;SDS011;28087;-33.874;151.240;2022-09-25T09:09:56;5.78;;;1.80;;
20794;SDS011;28087;-33.874;151.240;2022-09-25T09:12:34;5.07;;;1.77;;
20794;SDS011;28087;-33.874;151.240;2022-09-25T09:15:17;6.32;;;2.40;;
20794;SDS011;28087;-33.874;151.240;2022-09-25T09:17:56;5.78;;;3.10;;
20794;SDS011;28087;-33.874;151.240;2022-09-25T09:20:46;5.78;;;2.20;;
20794;SDS011;28087;-33.874;151.240;2022-09-25T09:23:46;5.35;;;1.80;;
20794;SDS011;28087;-33.874;151.240;2022-09-25T09:26:26;4.40;;;1.60;;
20794;SDS011;28087;-33.874;151.240;2022-09-25T09:29:07;5.18;;;1.63;;
20794;SDS011;28087;-33.874;151.240;2022-09-25T09:31:51;5.07;;;2.13;;
20794;SDS011;28087;-33.874;151.240;2022-09-25T09:34:35;6.72;;;1.98;;
20794;SDS011;28087;-33.874;151.240;2022-09-25T09:37:36;6.38;;;2.20;;
20794;SDS011;28087;-33.874;151.240;2022-09-25T09:40:20;4.43;;;2.10;;
20794;SDS011;28087;-33.874;151.240;2022-09-25T09:42:59;5.15;;;2.08;;
20794;SDS011;28087;-33.874;151.240;2022-09-25T09:45:39;4.22;;;1.98;;
20794;SDS011;28087;-33.874;151.240;2022-09-25T09:48:16;5.60;;;2.13;;
20794;SDS011;28087;-33.874;151.240;2022-09-25T09:50:55;6.63;;;2.42;;
20794;SDS011;28087;-33.874;151.240;2022-09-25T09:53:31;6.32;;;2.22;;
20794;SDS011;28087;-33.874;151.240;2022-09-25T09:56:11;6.63;;;2.70;;
20794;SDS011;28087;-33.874;151.240;2022-09-25T09:58:51;5.00;;;2.40;;
20794;SDS011;28087;-33.874;151.240;2022-09-25T10:01:31;6.13;;;2.50;;
20794;SDS011;28087;-33.874;151.240;2022-09-25T10:04:10;6.60;;;3.00;;
20794;SDS011;28087;-33.874;151.240;2022-09-25T10:06:48;7.40;;;3.00;;
20794;SDS011;28087;-33.874;151.240;2022-09-25T10:09:27;6.70;;;2.90;;
20794;SDS011;28087;-33.874;151.240;2022-09-25T10:12:06;7.05;;;2.70;;
20794;SDS011;28087;-33.874;151.240;2022-09-25T10:14:48;7.85;;;2.70;;
20794;SDS011;28087;-33.874;151.240;2022-09-25T10:17:24;7.80;;;2.78;;
20794;SDS011;28087;-33.874;151.240;2022-09-25T10:20:03;8.60;;;2.78;;
20794;SDS011;28087;-33.874;151.240;2022-09-25T10:22:47;7.07;;;2.85;;
20794;SDS011;28087;-33.874;151.240;2022-09-25T10:25:44;6.45;;;2.65;;
20794;SDS011;28087;-33.874;151.240;2022-09-25T10:28:31;7.60;;;2.83;;
20794;SDS011;28087;-33.874;151.240;2022-09-25T10:31:07;9.23;;;3.30;;
20794;SDS011;28087;-33.874;151.240;2022-09-25T10:33:49;10.75;;;4.28;;
20794;SDS011;28087;-33.874;151.240;2022-09-25T10:36:39;11.15;;;3.70;;
20794;SDS011;28087;-33.874;151.240;2022-09-25T10:39:23;7.70;;;3.45;;
20794;SDS011;28087;-33.874;151.240;2022-09-25T10:42:31;8.15;;;2.65;;
20794;SDS011;28087;-33.874;151.240;2022-09-25T10:45:28;7.50;;;2.72;;
20794;SDS011;28087;-33.874;151.240;2022-09-25T10:48:19;8.43;;;2.53;;
20794;SDS011;28087;-33.874;151.240;2022-09-25T10:51:15;8.00;;;2.70;;
20794;SDS011;28087;-33.874;151.240;2022-09-25T10:53:51;8.63;;;2.60;;
20794;SDS011;28087;-33.874;151.240;2022-09-25T10:56:43;7.95;;;2.60;;
20794;SDS011;28087;-33.874;151.240;2022-09-25T10:59:20;9.50;;;2.60;;
20794;SDS011;28087;-33.874;151.240;2022-09-25T11:01:58;8.27;;;2.83;;
20794;SDS011;28087;-33.874;151.240;2022-09-25T11:04:34;8.52;;;2.55;;
20794;SDS011;28087;-33.874;151.240;2022-09-25T11:07:13;9.38;;;2.47;;
20794;SDS011;28087;-33.874;151.240;2022-09-25T11:09:57;10.02;;;2.30;;
20794;SDS011;28087;-33.874;151.240;2022-09-25T11:12:33;8.27;;;2.45;;
20794;SDS011;28087;-33.874;151.240;2022-09-25T11:15:10;5.93;;;2.30;;
20794;SDS011;28087;-33.874;151.240;2022-09-25T11:17:56;7.80;;;2.60;;
20794;SDS011;28087;-33.874;151.240;2022-09-25T11:20:35;7.88;;;2.22;;
20794;SDS011;28087;-33.874;151.240;2022-09-25T11:23:21;5.78;;;2.20;;
20794;SDS011;28087;-33.874;151.240;2022-09-25T11:26:04;7.72;;;2.28;;
20794;SDS011;28087;-33.874;151.240;2022-09-25T11:28:43;6.95;;;2.45;;
20794;SDS011;28087;-33.874;151.240;2022-09-25T11:31:26;6.85;;;1.95;;
20794;SDS011;28087;-33.874;151.240;2022-09-25T11:34:11;7.40;;;2.10;;
20794;SDS011;28087;-33.874;151.240;2022-09-25T11:36:52;5.93;;;2.30;;
20794;SDS011;28087;-33.874;151.240;2022-09-25T11:39:35;8.48;;;2.30;;
20794;SDS011;28087;-33.874;151.240;2022-09-25T11:42:33;7.20;;;2.28;;
20794;SDS011;28087;-33.874;151.240;2022-09-25T11:45:18;7.50;;;2.30;;
20794;SDS011;28087;-33.874;151.240;2022-09-25T11:48:02;7.85;;;2.20;;
20794;SDS011;28087;-33.874;151.240;2022-09-25T11:50:44;6.57;;;2.22;;
20794;SDS011;28087;-33.874;151.240;2022-09-25T11:53:31;7.28;;;2.30;;
20794;SDS011;28087;-33.874;151.240;2022-09-25T11:56:19;4.70;;;2.17;;
20794;SDS011;28087;-33.874;151.240;2022-09-25T11:59:06;6.82;;;2.20;;
20794;SDS011;28087;-33.874;151.240;2022-09-25T12:01:53;5.72;;;2.00;;
20794;SDS011;28087;-33.874;151.240;2022-09-25T12:04:40;10.98;;;2.60;;
20794;SDS011;28087;-33.874;151.240;2022-09-25T12:11:00;8.02;;;2.40;;
20794;SDS011;28087;-33.874;151.240;2022-09-25T12:13:52;8.13;;;2.33;;
20794;SDS011;28087;-33.874;151.240;2022-09-25T12:16:34;6.85;;;2.50;;
20794;SDS011;28087;-33.874;151.240;2022-09-25T12:19:22;7.50;;;2.28;;
20794;SDS011;28087;-33.874;151.240;2022-09-25T12:22:06;7.00;;;2.30;;
20794;SDS011;28087;-33.874;151.240;2022-09-25T12:24:51;9.90;;;2.28;;
20794;SDS011;28087;-33.874;151.240;2022-09-25T12:27:39;7.97;;;2.58;;
20794;SDS011;28087;-33.874;151.240;2022-09-25T12:30:23;11.48;;;2.40;;
20794;SDS011;28087;-33.874;151.240;2022-09-25T12:33:15;7.13;;;2.20;;
20794;SDS011;28087;-33.874;151.240;2022-09-25T12:36:02;9.63;;;2.60;;
20794;SDS011;28087;-33.874;151.240;2022-09-25T12:38:43;11.25;;;2.58;;
20794;SDS011;28087;-33.874;151.240;2022-09-25T12:41:26;9.20;;;2.78;;
20794;SDS011;28087;-33.874;151.240;2022-09-25T12:44:10;7.00;;;2.53;;
20794;SDS011;28087;-33.874;151.240;2022-09-25T12:46:56;7.53;;;2.60;;
20794;SDS011;28087;-33.874;151.240;2022-09-25T12:49:38;10.32;;;2.60;;
20794;SDS011;28087;-33.874;151.240;2022-09-25T12:52:18;7.65;;;2.53;;
20794;SDS011;28087;-33.874;151.240;2022-09-25T12:55:01;10.75;;;2.55;;
20794;SDS011;28087;-33.874;151.240;2022-09-25T12:57:38;7.07;;;2.38;;
20794;SDS011;28087;-33.874;151.240;2022-09-25T13:00:19;5.65;;;2.20;;
20794;SDS011;28087;-33.874;151.240;2022-09-25T13:02:58;9.75;;;2.40;;
20794;SDS011;28087;-33.874;151.240;2022-09-25T13:05:38;8.07;;;2.92;;
20794;SDS011;28087;-33.874;151.240;2022-09-25T13:08:17;6.60;;;2.30;;
20794;SDS011;28087;-33.874;151.240;2022-09-25T13:11:00;6.07;;;2.35;;
20794;SDS011;28087;-33.874;151.240;2022-09-25T13:13:39;7.55;;;2.22;;
20794;SDS011;28087;-33.874;151.240;2022-09-25T13:16:22;8.90;;;2.40;;
20794;SDS011;28087;-33.874;151.240;2022-09-25T13:19:10;9.27;;;2.25;;
20794;SDS011;28087;-33.874;151.240;2022-09-25T13:22:01;7.30;;;2.30;;
20794;SDS011;28087;-33.874;151.240;2022-09-25T13:24:42;9.32;;;2.35;;
20794;SDS011;28087;-33.874;151.240;2022-09-25T13:27:21;7.15;;;2.38;;
20794;SDS011;28087;-33.874;151.240;2022-09-25T13:30:05;6.95;;;2.00;;
20794;SDS011;28087;-33.874;151.240;2022-09-25T13:32:55;8.88;;;2.20;;
20794;SDS011;28087;-33.874;151.240;2022-09-25T13:35:32;7.32;;;2.30;;
20794;SDS011;28087;-33.874;151.240;2022-09-25T13:38:13;8.88;;;2.17;;
20794;SDS011;28087;-33.874;151.240;2022-09-25T13:41:12;7.32;;;2.10;;
20794;SDS011;28087;-33.874;151.240;2022-09-25T13:43:46;7.40;;;2.10;;
20794;SDS011;28087;-33.874;151.240;2022-09-25T13:46:22;7.13;;;2.40;;
20794;SDS011;28087;-33.874;151.240;2022-09-25T13:55:14;8.38;;;2.20;;
20794;SDS011;28087;-33.874;151.240;2022-09-25T13:58:02;7.28;;;2.50;;
20794;SDS011;28087;-33.874;151.240;2022-09-25T14:00:51;8.35;;;2.30;;
20794;SDS011;28087;-33.874;151.240;2022-09-25T14:03:29;7.32;;;2.30;;
20794;SDS011;28087;-33.874;151.240;2022-09-25T14:06:13;8.48;;;2.30;;
20794;SDS011;28087;-33.874;151.240;2022-09-25T14:08:53;6.45;;;2.35;;
20794;SDS011;28087;-33.874;151.240;2022-09-25T14:11:33;6.20;;;2.20;;
20794;SDS011;28087;-33.874;151.240;2022-09-25T14:14:10;7.80;;;2.25;;
20794;SDS011;28087;-33.874;151.240;2022-09-25T14:16:55;6.85;;;2.28;;
20794;SDS011;28087;-33.874;151.240;2022-09-25T14:19:31;7.65;;;2.17;;
20794;SDS011;28087;-33.874;151.240;2022-09-25T14:22:14;5.32;;;2.20;;
20794;SDS011;28087;-33.874;151.240;2022-09-25T14:24:54;7.13;;;2.45;;
20794;SDS011;28087;-33.874;151.240;2022-09-25T14:27:29;8.93;;;2.15;;
20794;SDS011;28087;-33.874;151.240;2022-09-25T14:30:05;7.00;;;2.50;;
20794;SDS011;28087;-33.874;151.240;2022-09-25T14:33:13;7.63;;;2.70;;
20794;SDS011;28087;-33.874;151.240;2022-09-25T14:36:02;6.72;;;2.53;;
20794;SDS011;28087;-33.874;151.240;2022-09-25T14:38:51;7.10;;;2.30;;
20794;SDS011;28087;-33.874;151.240;2022-09-25T14:44:54;9.73;;;2.35;;
20794;SDS011;28087;-33.874;151.240;2022-09-25T14:47:46;5.88;;;2.42;;
20794;SDS011;28087;-33.874;151.240;2022-09-25T14:50:25;6.05;;;2.45;;
20794;SDS011;28087;-33.874;151.240;2022-09-25T14:53:02;6.85;;;2.50;;
20794;SDS011;28087;-33.874;151.240;2022-09-25T14:55:42;9.00;;;2.92;;
20794;SDS011;28087;-33.874;151.240;2022-09-25T14:58:23;9.40;;;3.00;;
20794;SDS011;28087;-33.874;151.240;2022-09-25T15:01:05;7.13;;;2.92;;
20794;SDS011;28087;-33.874;151.240;2022-09-25T15:03:47;11.15;;;3.10;;
20794;SDS011;28087;-33.874;151.240;2022-09-25T15:06:27;10.88;;;3.47;;
20794;SDS011;28087;-33.874;151.240;2022-09-25T15:09:18;10.82;;;3.00;;
20794;SDS011;28087;-33.874;151.240;2022-09-25T15:12:11;13.43;;;3.20;;
20794;SDS011;28087;-33.874;151.240;2022-09-25T15:14:58;8.55;;;3.60;;
20794;SDS011;28087;-33.874;151.240;2022-09-25T15:17:42;10.20;;;3.47;;
20794;SDS011;28087;-33.874;151.240;2022-09-25T15:20:20;8.40;;;3.90;;
20794;SDS011;28087;-33.874;151.240;2022-09-25T15:23:00;11.57;;;3.78;;
20794;SDS011;28087;-33.874;151.240;2022-09-25T15:25:38;12.32;;;3.90;;
20794;SDS011;28087;-33.874;151.240;2022-09-25T15:28:20;8.40;;;3.75;;
20794;SDS011;28087;-33.874;151.240;2022-09-25T15:30:58;10.18;;;3.85;;
20794;SDS011;28087;-33.874;151.240;2022-09-25T15:33:39;11.70;;;4.10;;
20794;SDS011;28087;-33.874;151.240;2022-09-25T15:36:16;12.73;;;4.28;;